sensor_id;sensor_type;location;lat;lon;timestamp;pressure;altitude;pressure_sealevel;temperature;humidity
7264;BME280;3673;52.480;13.348;2023-02-28T00:00:14;102699.72;;;8.89;42.89
7264;BME280;3673;52.480;13.348;2023-02-28T00:02:43;102703.28;;;8.68;43.26
7264;BME280;3673;52.480;13.348;2023-02-28T00:05:12;102696.34;;;8.69;42.99
7264;BME280;3673;52.480;13.348;2023-02-28T00:07:40;102688.47;;;8.67;43.09
7264;BME280;3673;52.480;13.348;2023-02-28T00:10:10;102707.63;;;8.90;42.89
7264;BME280;3673;52.480;13.348;2023-02-28T00:12:40;102698.78;;;8.87;42.93
7264;BME280;3673;52.480;13.348;2023-02-28T00:15:10;102708.00;;;8.77;43.18
7264;BME280;3673;52.480;13.348;2023-02-28T00:17:38;102690.09;;;8.64;43.38
7264;BME280;3673;52.480;13.348;2023-02-28T00:20:09;102703.59;;;8.76;43.65
7264;BME280;3673;52.480;13.348;2023-02-28T00:22:40;102701.22;;;8.82;43.52
7264;BME280;3673;52.480;13.348;2023-02-28T00:25:09;102712.19;;;8.73;43.57
7264;BME280;3673;52.480;13.348;2023-02-28T00:27:39;102699.25;;;8.54;43.90
7264;BME280;3673;52.480;13.348;2023-02-28T00:30:10;102707.16;;;8.56;44.00
7264;BME280;3673;52.480;13.348;2023-02-28T00:32:38;102697.03;;;8.63;43.75
7264;BME280;3673;52.480;13.348;2023-02-28T00:35:08;102701.75;;;8.73;43.19
7264;BME280;3673;52.480;13.348;2023-02-28T00:37:36;102705.69;;;8.40;43.94
7264;BME280;3673;52.480;13.348;2023-02-28T00:40:05;102705.25;;;8.52;43.60
7264;BME280;3673;52.480;13.348;2023-02-28T00:42:34;102709.88;;;8.59;43.97
7264;BME280;3673;52.480;13.348;2023-02-28T00:45:03;102706.34;;;8.57;43.69
7264;BME280;3673;52.480;13.348;2023-02-28T00:47:31;102705.31;;;8.53;44.23
7264;BME280;3673;52.480;13.348;2023-02-28T00:49:59;102705.31;;;8.53;44.03
7264;BME280;3673;52.480;13.348;2023-02-28T00:52:27;102717.47;;;8.53;43.99
7264;BME280;3673;52.480;13.348;2023-02-28T00:54:54;102692.56;;;8.39;44.40
7264;BME280;3673;52.480;13.348;2023-02-28T00:57:22;102720.44;;;8.40;44.26
7264;BME280;3673;52.480;13.348;2023-02-28T00:59:49;102702.22;;;8.41;44.18
7264;BME280;3673;52.480;13.348;2023-02-28T01:02:18;102707.16;;;8.34;44.52
7264;BME280;3673;52.480;13.348;2023-02-28T01:04:46;102720.31;;;8.16;44.80
7264;BME280;3673;52.480;13.348;2023-02-28T01:07:14;102708.28;;;8.19;44.66
7264;BME280;3673;52.480;13.348;2023-02-28T01:09:41;102717.50;;;8.11;45.00
7264;BME280;3673;52.480;13.348;2023-02-28T01:12:09;102704.66;;;8.16;45.16
7264;BME280;3673;52.480;13.348;2023-02-28T01:14:37;102711.00;;;8.22;44.76
7264;BME280;3673;52.480;13.348;2023-02-28T01:17:05;102706.25;;;8.12;44.72
7264;BME280;3673;52.480;13.348;2023-02-28T01:19:34;102696.84;;;8.16;44.81
7264;BME280;3673;52.480;13.348;2023-02-28T01:22:02;102696.81;;;7.94;45.64
7264;BME280;3673;52.480;13.348;2023-02-28T01:24:29;102704.78;;;7.98;45.24
7264;BME280;3673;52.480;13.348;2023-02-28T01:26:56;102704.78;;;7.98;45.35
7264;BME280;3673;52.480;13.348;2023-02-28T01:29:24;102692.72;;;8.00;45.44
7264;BME280;3673;52.480;13.348;2023-02-28T01:31:52;102696.41;;;7.85;45.47
7264;BME280;3673;52.480;13.348;2023-02-28T01:34:19;102689.97;;;7.97;44.98
7264;BME280;3673;52.480;13.348;2023-02-28T01:36:48;102677.78;;;7.96;45.19
7264;BME280;3673;52.480;13.348;2023-02-28T01:39:15;102681.78;;;8.09;44.94
7264;BME280;3673;52.480;13.348;2023-02-28T01:41:42;102676.69;;;7.91;45.24
7264;BME280;3673;52.480;13.348;2023-02-28T01:47:41;102689.03;;;7.95;45.60
7264;BME280;3673;52.480;13.348;2023-02-28T01:50:14;102679.81;;;8.03;45.58
7264;BME280;3673;52.480;13.348;2023-02-28T01:52:44;102674.66;;;7.84;45.62
7264;BME280;3673;52.480;13.348;2023-02-28T01:55:13;102697.19;;;8.03;45.66
7264;BME280;3673;52.480;13.348;2023-02-28T01:57:46;102683.78;;;7.94;45.72
7264;BME280;3673;52.480;13.348;2023-02-28T02:00:18;102695.84;;;7.92;45.54
7264;BME280;3673;52.480;13.348;2023-02-28T02:02:51;102693.22;;;7.92;45.55
7264;BME280;3673;52.480;13.348;2023-02-28T02:05:22;102695.66;;;7.87;45.44
7264;BME280;3673;52.480;13.348;2023-02-28T02:07:55;102698.84;;;7.80;46.08
7264;BME280;3673;52.480;13.348;2023-02-28T02:10:31;102694.66;;;7.84;45.91
7264;BME280;3673;52.480;13.348;2023-02-28T02:13:25;102692.28;;;7.90;45.74
7264;BME280;3673;52.480;13.348;2023-02-28T02:16:06;102683.81;;;7.74;46.01
7264;BME280;3673;52.480;13.348;2023-02-28T02:18:43;102691.59;;;7.73;46.08
7264;BME280;3673;52.480;13.348;2023-02-28T02:25:10;102692.16;;;7.66;46.25
7264;BME280;3673;52.480;13.348;2023-02-28T02:28:02;102685.22;;;7.66;46.34
7264;BME280;3673;52.480;13.348;2023-02-28T02:34:05;102685.91;;;7.62;46.19
7264;BME280;3673;52.480;13.348;2023-02-28T02:36:38;102689.72;;;7.50;46.57
7264;BME280;3673;52.480;13.348;2023-02-28T02:39:14;102694.84;;;7.48;46.90
7264;BME280;3673;52.480;13.348;2023-02-28T02:41:49;102685.75;;;7.39;46.88
7264;BME280;3673;52.480;13.348;2023-02-28T02:44:21;102689.19;;;7.38;46.87
7264;BME280;3673;52.480;13.348;2023-02-28T02:46:54;102695.75;;;7.49;47.16
7264;BME280;3673;52.480;13.348;2023-02-28T02:49:28;102688.84;;;7.49;46.85
7264;BME280;3673;52.480;13.348;2023-02-28T02:52:00;102689.84;;;7.53;46.64
7264;BME280;3673;52.480;13.348;2023-02-28T02:54:32;102684.41;;;7.47;46.64
7264;BME280;3673;52.480;13.348;2023-02-28T02:57:09;102689.06;;;7.35;46.71
7264;BME280;3673;52.480;13.348;2023-02-28T02:59:42;102686.56;;;7.17;47.59
7264;BME280;3673;52.480;13.348;2023-02-28T03:02:14;102686.47;;;7.15;47.84
7264;BME280;3673;52.480;13.348;2023-02-28T03:04:50;102694.41;;;7.18;47.81
7264;BME280;3673;52.480;13.348;2023-02-28T03:07:19;102690.38;;;7.25;47.58
7264;BME280;3673;52.480;13.348;2023-02-28T03:09:54;102692.41;;;7.32;46.94
7264;BME280;3673;52.480;13.348;2023-02-28T03:12:28;102697.22;;;7.23;47.97
7264;BME280;3673;52.480;13.348;2023-02-28T03:15:08;102694.75;;;7.26;47.79
7264;BME280;3673;52.480;13.348;2023-02-28T03:17:55;102703.47;;;7.27;47.57
7264;BME280;3673;52.480;13.348;2023-02-28T03:20:38;102699.75;;;7.21;47.79
7264;BME280;3673;52.480;13.348;2023-02-28T03:23:15;102702.78;;;7.11;48.10
7264;BME280;3673;52.480;13.348;2023-02-28T03:25:54;102698.59;;;6.96;47.96
7264;BME280;3673;52.480;13.348;2023-02-28T03:28:32;102711.63;;;7.15;47.74
7264;BME280;3673;52.480;13.348;2023-02-28T03:31:13;102704.28;;;7.06;48.02
7264;BME280;3673;52.480;13.348;2023-02-28T03:33:46;102713.94;;;7.09;47.69
7264;BME280;3673;52.480;13.348;2023-02-28T03:36:28;102709.13;;;7.18;47.36
7264;BME280;3673;52.480;13.348;2023-02-28T03:38:59;102708.13;;;7.14;47.53
7264;BME280;3673;52.480;13.348;2023-02-28T03:41:35;102697.44;;;7.08;47.73
7264;BME280;3673;52.480;13.348;2023-02-28T03:44:11;102704.56;;;7.12;47.33
7264;BME280;3673;52.480;13.348;2023-02-28T03:46:46;102703.41;;;7.06;47.74
7264;BME280;3673;52.480;13.348;2023-02-28T03:49:19;102715.75;;;7.10;47.80
7264;BME280;3673;52.480;13.348;2023-02-28T03:51:51;102714.56;;;7.03;47.49
7264;BME280;3673;52.480;13.348;2023-02-28T03:54:25;102710.31;;;7.05;47.68
7264;BME280;3673;52.480;13.348;2023-02-28T03:56:59;102713.28;;;6.94;48.10
7264;BME280;3673;52.480;13.348;2023-02-28T03:59:35;102707.44;;;6.80;48.82
7264;BME280;3673;52.480;13.348;2023-02-28T04:02:05;102711.41;;;6.91;48.78
7264;BME280;3673;52.480;13.348;2023-02-28T04:04:32;102703.41;;;6.87;47.84
7264;BME280;3673;52.480;13.348;2023-02-28T04:07:07;102711.00;;;7.01;47.90
7264;BME280;3673;52.480;13.348;2023-02-28T04:09:35;102713.84;;;6.88;47.84
7264;BME280;3673;52.480;13.348;2023-02-28T04:12:03;102711.66;;;6.78;48.23
7264;BME280;3673;52.480;13.348;2023-02-28T04:14:31;102712.06;;;6.68;49.04
7264;BME280;3673;52.480;13.348;2023-02-28T04:16:59;102715.56;;;6.68;48.59
7264;BME280;3673;52.480;13.348;2023-02-28T04:19:26;102708.88;;;6.73;48.53
7264;BME280;3673;52.480;13.348;2023-02-28T04:21:54;102700.56;;;6.63;48.34
7264;BME280;3673;52.480;13.348;2023-02-28T04:24:26;102712.91;;;6.67;48.55
7264;BME280;3673;52.480;13.348;2023-02-28T04:26:56;102717.84;;;6.43;49.11
7264;BME280;3673;52.480;13.348;2023-02-28T04:29:27;102721.09;;;6.39;49.40
7264;BME280;3673;52.480;13.348;2023-02-28T04:31:56;102721.13;;;6.58;49.28
7264;BME280;3673;52.480;13.348;2023-02-28T04:34:25;102723.44;;;6.70;49.27
7264;BME280;3673;52.480;13.348;2023-02-28T04:36:54;102718.66;;;6.79;48.68
7264;BME280;3673;52.480;13.348;2023-02-28T04:39:25;102722.19;;;6.81;48.50
7264;BME280;3673;52.480;13.348;2023-02-28T04:41:53;102717.09;;;6.83;48.36
7264;BME280;3673;52.480;13.348;2023-02-28T04:44:21;102733.09;;;6.92;48.38
7264;BME280;3673;52.480;13.348;2023-02-28T04:46:49;102729.13;;;6.81;48.69
7264;BME280;3673;52.480;13.348;2023-02-28T04:49:17;102712.78;;;6.83;48.86
7264;BME280;3673;52.480;13.348;2023-02-28T04:51:44;102724.09;;;6.84;48.71
7264;BME280;3673;52.480;13.348;2023-02-28T04:54:15;102716.59;;;6.72;49.10
7264;BME280;3673;52.480;13.348;2023-02-28T04:56:45;102727.72;;;6.50;50.49
7264;BME280;3673;52.480;13.348;2023-02-28T04:59:14;102738.69;;;6.62;49.84
7264;BME280;3673;52.480;13.348;2023-02-28T05:01:47;102729.59;;;6.72;49.26
7264;BME280;3673;52.480;13.348;2023-02-28T05:04:15;102737.53;;;6.75;49.40
7264;BME280;3673;52.480;13.348;2023-02-28T05:06:43;102734.78;;;6.72;49.18
7264;BME280;3673;52.480;13.348;2023-02-28T05:09:11;102739.22;;;6.20;50.35
7264;BME280;3673;52.480;13.348;2023-02-28T05:11:39;102749.72;;;5.88;50.86
7264;BME280;3673;52.480;13.348;2023-02-28T05:14:12;102742.06;;;5.91;51.14
7264;BME280;3673;52.480;13.348;2023-02-28T05:16:41;102739.44;;;6.07;50.62
7264;BME280;3673;52.480;13.348;2023-02-28T05:19:09;102744.84;;;6.11;50.48
7264;BME280;3673;52.480;13.348;2023-02-28T05:21:39;102746.72;;;6.32;50.02
7264;BME280;3673;52.480;13.348;2023-02-28T05:24:10;102739.44;;;6.25;50.02
7264;BME280;3673;52.480;13.348;2023-02-28T05:26:41;102736.84;;;6.07;50.08
7264;BME280;3673;52.480;13.348;2023-02-28T05:29:10;102754.00;;;6.03;50.76
7264;BME280;3673;52.480;13.348;2023-02-28T05:31:37;102750.41;;;6.01;50.67
7264;BME280;3673;52.480;13.348;2023-02-28T05:34:05;102737.59;;;6.22;50.23
7264;BME280;3673;52.480;13.348;2023-02-28T05:36:32;102746.78;;;6.15;50.24
7264;BME280;3673;52.480;13.348;2023-02-28T05:38:59;102749.31;;;6.14;50.22
7264;BME280;3673;52.480;13.348;2023-02-28T05:41:26;102751.09;;;6.15;50.10
7264;BME280;3673;52.480;13.348;2023-02-28T05:43:52;102753.53;;;6.12;50.34
7264;BME280;3673;52.480;13.348;2023-02-28T05:46:20;102752.38;;;6.23;50.60
7264;BME280;3673;52.480;13.348;2023-02-28T05:48:48;102749.69;;;6.39;49.79
7264;BME280;3673;52.480;13.348;2023-02-28T05:51:15;102763.38;;;6.53;49.20
7264;BME280;3673;52.480;13.348;2023-02-28T05:53:42;102750.72;;;6.60;48.59
7264;BME280;3673;52.480;13.348;2023-02-28T05:56:09;102760.03;;;6.74;48.29
7264;BME280;3673;52.480;13.348;2023-02-28T05:58:36;102764.69;;;6.62;48.54
7264;BME280;3673;52.480;13.348;2023-02-28T06:01:24;102764.16;;;6.52;48.80
7264;BME280;3673;52.480;13.348;2023-02-28T06:03:51;102760.47;;;6.47;48.46
7264;BME280;3673;52.480;13.348;2023-02-28T06:06:18;102763.22;;;6.50;48.59
7264;BME280;3673;52.480;13.348;2023-02-28T06:08:45;102762.97;;;6.63;48.95
7264;BME280;3673;52.480;13.348;2023-02-28T06:11:12;102767.66;;;6.70;48.70
7264;BME280;3673;52.480;13.348;2023-02-28T06:13:39;102756.34;;;6.69;48.58
7264;BME280;3673;52.480;13.348;2023-02-28T06:16:07;102769.72;;;6.77;48.31
7264;BME280;3673;52.480;13.348;2023-02-28T06:18:35;102771.50;;;6.78;48.73
7264;BME280;3673;52.480;13.348;2023-02-28T06:21:02;102767.84;;;6.74;48.31
7264;BME280;3673;52.480;13.348;2023-02-28T06:23:29;102772.75;;;6.86;48.06
7264;BME280;3673;52.480;13.348;2023-02-28T06:25:56;102772.94;;;6.91;48.00
7264;BME280;3673;52.480;13.348;2023-02-28T06:28:24;102774.75;;;6.92;47.95
7264;BME280;3673;52.480;13.348;2023-02-28T06:30:51;102780.06;;;6.95;47.89
7264;BME280;3673;52.480;13.348;2023-02-28T06:33:18;102783.44;;;6.92;47.82
7264;BME280;3673;52.480;13.348;2023-02-28T06:35:47;102781.25;;;7.01;47.61
7264;BME280;3673;52.480;13.348;2023-02-28T06:38:14;102785.66;;;7.02;47.63
7264;BME280;3673;52.480;13.348;2023-02-28T06:40:40;102790.44;;;6.93;47.52
7264;BME280;3673;52.480;13.348;2023-02-28T06:43:08;102795.97;;;7.01;46.95
7264;BME280;3673;52.480;13.348;2023-02-28T06:45:34;102803.88;;;7.02;46.73
7264;BME280;3673;52.480;13.348;2023-02-28T06:48:01;102801.25;;;7.02;46.70
7264;BME280;3673;52.480;13.348;2023-02-28T06:50:28;102798.72;;;7.04;46.61
7264;BME280;3673;52.480;13.348;2023-02-28T06:52:57;102804.75;;;7.03;46.71
7264;BME280;3673;52.480;13.348;2023-02-28T06:55:24;102794.22;;;7.00;47.17
7264;BME280;3673;52.480;13.348;2023-02-28T06:57:51;102797.31;;;7.10;46.69
7264;BME280;3673;52.480;13.348;2023-02-28T07:00:19;102809.72;;;7.16;46.40
7264;BME280;3673;52.480;13.348;2023-02-28T07:02:45;102802.84;;;7.18;45.73
7264;BME280;3673;52.480;13.348;2023-02-28T07:05:13;102804.56;;;7.17;45.76
7264;BME280;3673;52.480;13.348;2023-02-28T07:07:40;102801.63;;;7.29;45.21
7264;BME280;3673;52.480;13.348;2023-02-28T07:10:11;102799.66;;;7.23;45.83
7264;BME280;3673;52.480;13.348;2023-02-28T07:12:39;102801.63;;;7.29;45.75
7264;BME280;3673;52.480;13.348;2023-02-28T07:15:07;102808.09;;;7.37;45.36
7264;BME280;3673;52.480;13.348;2023-02-28T07:17:34;102807.47;;;7.43;45.10
7264;BME280;3673;52.480;13.348;2023-02-28T07:20:01;102806.72;;;7.45;44.73
7264;BME280;3673;52.480;13.348;2023-02-28T07:22:30;102808.22;;;7.40;45.45
7264;BME280;3673;52.480;13.348;2023-02-28T07:24:56;102808.16;;;7.39;44.88
7264;BME280;3673;52.480;13.348;2023-02-28T07:27:24;102804.19;;;7.47;44.60
7264;BME280;3673;52.480;13.348;2023-02-28T07:29:52;102806.72;;;7.45;44.61
7264;BME280;3673;52.480;13.348;2023-02-28T07:32:20;102813.28;;;7.56;44.27
7264;BME280;3673;52.480;13.348;2023-02-28T07:34:47;102808.97;;;7.57;44.11
7264;BME280;3673;52.480;13.348;2023-02-28T07:37:14;102814.38;;;7.61;43.98
7264;BME280;3673;52.480;13.348;2023-02-28T07:39:40;102815.91;;;7.56;44.46
7264;BME280;3673;52.480;13.348;2023-02-28T07:42:08;102813.78;;;7.67;43.99
7264;BME280;3673;52.480;13.348;2023-02-28T07:44:38;102821.72;;;7.70;43.49
7264;BME280;3673;52.480;13.348;2023-02-28T07:47:07;102812.00;;;7.66;42.02
7264;BME280;3673;52.480;13.348;2023-02-28T07:49:34;102809.91;;;7.78;38.59
7264;BME280;3673;52.480;13.348;2023-02-28T07:52:02;102817.59;;;7.75;38.26
7264;BME280;3673;52.480;13.348;2023-02-28T07:54:29;102816.69;;;7.74;38.22
7264;BME280;3673;52.480;13.348;2023-02-28T07:56:56;102820.28;;;7.76;36.61
7264;BME280;3673;52.480;13.348;2023-02-28T07:59:23;102814.09;;;7.74;36.55
7264;BME280;3673;52.480;13.348;2023-02-28T08:01:51;102820.53;;;7.83;36.00
7264;BME280;3673;52.480;13.348;2023-02-28T08:04:18;102811.00;;;7.83;35.84
7264;BME280;3673;52.480;13.348;2023-02-28T08:06:45;102819.47;;;7.98;35.33
7264;BME280;3673;52.480;13.348;2023-02-28T08:09:13;102823.63;;;7.93;35.48
7264;BME280;3673;52.480;13.348;2023-02-28T08:11:39;102825.03;;;8.06;34.84
7264;BME280;3673;52.480;13.348;2023-02-28T08:14:06;102824.78;;;7.81;34.59
7264;BME280;3673;52.480;13.348;2023-02-28T08:16:33;102819.63;;;8.22;34.09
7264;BME280;3673;52.480;13.348;2023-02-28T08:19:01;102805.78;;;8.23;34.83
7264;BME280;3673;52.480;13.348;2023-02-28T08:21:28;102821.78;;;8.31;33.73
7264;BME280;3673;52.480;13.348;2023-02-28T08:23:55;102809.31;;;8.25;33.40
7264;BME280;3673;52.480;13.348;2023-02-28T08:26:22;102813.75;;;8.27;33.16
7264;BME280;3673;52.480;13.348;2023-02-28T08:28:49;102816.63;;;8.32;33.79
7264;BME280;3673;52.480;13.348;2023-02-28T08:31:16;102818.84;;;8.24;34.01
7264;BME280;3673;52.480;13.348;2023-02-28T08:33:44;102817.88;;;8.42;34.23
7264;BME280;3673;52.480;13.348;2023-02-28T08:36:12;102818.56;;;8.38;33.52
7264;BME280;3673;52.480;13.348;2023-02-28T08:38:39;102815.84;;;8.35;34.22
7264;BME280;3673;52.480;13.348;2023-02-28T08:41:08;102817.19;;;8.46;33.92
7264;BME280;3673;52.480;13.348;2023-02-28T08:43:36;102821.03;;;8.76;33.54
7264;BME280;3673;52.480;13.348;2023-02-28T08:46:04;102815.38;;;8.88;32.44
7264;BME280;3673;52.480;13.348;2023-02-28T08:48:34;102814.75;;;8.93;31.78
7264;BME280;3673;52.480;13.348;2023-02-28T08:51:06;102819.59;;;8.84;32.18
7264;BME280;3673;52.480;13.348;2023-02-28T08:53:37;102809.22;;;8.86;31.88
7264;BME280;3673;52.480;13.348;2023-02-28T08:56:07;102817.59;;;8.99;31.51
7264;BME280;3673;52.480;13.348;2023-02-28T08:58:35;102819.97;;;9.15;31.03
7264;BME280;3673;52.480;13.348;2023-02-28T09:01:08;102816.69;;;8.99;31.20
7264;BME280;3673;52.480;13.348;2023-02-28T09:03:35;102811.84;;;8.86;30.07
7264;BME280;3673;52.480;13.348;2023-02-28T09:06:02;102818.41;;;8.98;31.03
7264;BME280;3673;52.480;13.348;2023-02-28T09:08:31;102826.00;;;8.70;30.45
7264;BME280;3673;52.480;13.348;2023-02-28T09:10:59;102822.34;;;9.09;30.38
7264;BME280;3673;52.480;13.348;2023-02-28T09:13:28;102823.47;;;9.16;29.91
7264;BME280;3673;52.480;13.348;2023-02-28T09:15:58;102830.63;;;9.21;30.06
7264;BME280;3673;52.480;13.348;2023-02-28T09:18:25;102830.41;;;9.15;29.57
7264;BME280;3673;52.480;13.348;2023-02-28T09:20:52;102826.66;;;9.09;30.43
7264;BME280;3673;52.480;13.348;2023-02-28T09:23:20;102825.78;;;9.08;30.69
7264;BME280;3673;52.480;13.348;2023-02-28T09:25:49;102818.38;;;8.97;29.92
7264;BME280;3673;52.480;13.348;2023-02-28T09:28:18;102822.44;;;9.35;29.76
7264;BME280;3673;52.480;13.348;2023-02-28T09:30:47;102830.75;;;9.47;29.85
7264;BME280;3673;52.480;13.348;2023-02-28T09:33:16;102822.81;;;9.21;30.51
7264;BME280;3673;52.480;13.348;2023-02-28T09:35:44;102825.44;;;9.45;30.39
7264;BME280;3673;52.480;13.348;2023-02-28T09:38:11;102823.16;;;9.54;30.28
7264;BME280;3673;52.480;13.348;2023-02-28T09:40:46;102829.25;;;9.53;30.63
7264;BME280;3673;52.480;13.348;2023-02-28T09:43:15;102822.41;;;9.57;29.93
7264;BME280;3673;52.480;13.348;2023-02-28T09:45:51;102817.69;;;9.70;29.54
7264;BME280;3673;52.480;13.348;2023-02-28T09:48:28;102828.09;;;9.23;30.05
7264;BME280;3673;52.480;13.348;2023-02-28T09:51:02;102829.25;;;9.31;30.20
7264;BME280;3673;52.480;13.348;2023-02-28T09:53:33;102825.00;;;9.57;30.35
7264;BME280;3673;52.480;13.348;2023-02-28T09:56:04;102826.94;;;9.39;30.02
7264;BME280;3673;52.480;13.348;2023-02-28T09:58:37;102829.56;;;9.62;30.01
7264;BME280;3673;52.480;13.348;2023-02-28T10:01:12;102823.50;;;9.40;30.11
7264;BME280;3673;52.480;13.348;2023-02-28T10:03:48;102826.50;;;9.26;30.15
7264;BME280;3673;52.480;13.348;2023-02-28T10:06:20;102828.94;;;9.46;30.23
7264;BME280;3673;52.480;13.348;2023-02-28T10:08:54;102831.78;;;9.52;29.96
7264;BME280;3673;52.480;13.348;2023-02-28T10:11:24;102818.78;;;9.53;29.95
7264;BME280;3673;52.480;13.348;2023-02-28T10:13:56;102827.88;;;9.64;30.12
7264;BME280;3673;52.480;13.348;2023-02-28T10:16:33;102823.16;;;9.54;29.89
7264;BME280;3673;52.480;13.348;2023-02-28T10:19:05;102827.78;;;9.61;29.92
7264;BME280;3673;52.480;13.348;2023-02-28T10:21:39;102827.66;;;9.82;29.70
7264;BME280;3673;52.480;13.348;2023-02-28T10:24:20;102824.34;;;9.86;29.96
7264;BME280;3673;52.480;13.348;2023-02-28T10:26:52;102818.50;;;9.93;29.42
7264;BME280;3673;52.480;13.348;2023-02-28T10:29:22;102825.63;;;9.99;29.50
7264;BME280;3673;52.480;13.348;2023-02-28T10:31:50;102823.97;;;10.01;29.71
7264;BME280;3673;52.480;13.348;2023-02-28T10:34:17;102823.09;;;10.00;29.85
7264;BME280;3673;52.480;13.348;2023-02-28T10:36:44;102820.69;;;10.31;29.10
7264;BME280;3673;52.480;13.348;2023-02-28T10:39:41;102828.09;;;9.94;29.48
7264;BME280;3673;52.480;13.348;2023-02-28T10:42:23;102823.00;;;9.73;29.82
7264;BME280;3673;52.480;13.348;2023-02-28T10:45:10;102820.41;;;9.99;29.77
7264;BME280;3673;52.480;13.348;2023-02-28T10:47:51;102830.06;;;10.25;29.12
7264;BME280;3673;52.480;13.348;2023-02-28T10:50:35;102815.66;;;10.38;28.59
7264;BME280;3673;52.480;13.348;2023-02-28T10:53:16;102811.28;;;10.37;28.61
7264;BME280;3673;52.480;13.348;2023-02-28T10:55:56;102803.72;;;10.72;28.71
7264;BME280;3673;52.480;13.348;2023-02-28T10:58:25;102813.19;;;10.67;28.82
7264;BME280;3673;52.480;13.348;2023-02-28T11:00:53;102803.09;;;10.53;28.51
7264;BME280;3673;52.480;13.348;2023-02-28T11:03:30;102801.47;;;10.84;27.96
7264;BME280;3673;52.480;13.348;2023-02-28T11:05:58;102790.19;;;11.14;27.62
7264;BME280;3673;52.480;13.348;2023-02-28T11:08:25;102795.91;;;11.30;27.61
7264;BME280;3673;52.480;13.348;2023-02-28T11:10:57;102792.56;;;11.36;27.30
7264;BME280;3673;52.480;13.348;2023-02-28T11:13:31;102782.69;;;11.87;27.15
7264;BME280;3673;52.480;13.348;2023-02-28T11:16:02;102786.09;;;12.17;25.99
7264;BME280;3673;52.480;13.348;2023-02-28T11:18:40;102777.06;;;12.42;26.09
7264;BME280;3673;52.480;13.348;2023-02-28T11:21:09;102784.50;;;12.60;25.46
7264;BME280;3673;52.480;13.348;2023-02-28T11:23:40;102777.97;;;13.19;24.85
7264;BME280;3673;52.480;13.348;2023-02-28T11:26:08;102777.16;;;13.21;24.33
7264;BME280;3673;52.480;13.348;2023-02-28T11:28:39;102768.75;;;13.39;24.11
7264;BME280;3673;52.480;13.348;2023-02-28T11:31:18;102762.41;;;13.74;24.68
7264;BME280;3673;52.480;13.348;2023-02-28T11:33:51;102767.44;;;13.61;24.29
7264;BME280;3673;52.480;13.348;2023-02-28T11:36:21;102762.97;;;13.13;24.32
7264;BME280;3673;52.480;13.348;2023-02-28T11:38:50;102770.41;;;13.34;24.70
7264;BME280;3673;52.480;13.348;2023-02-28T11:41:36;102767.19;;;13.47;24.39
7264;BME280;3673;52.480;13.348;2023-02-28T11:44:24;102764.72;;;13.58;24.10
7264;BME280;3673;52.480;13.348;2023-02-28T11:46:59;102762.03;;;13.55;23.87
7264;BME280;3673;52.480;13.348;2023-02-28T11:49:40;102758.09;;;13.76;23.53
7264;BME280;3673;52.480;13.348;2023-02-28T11:52:20;102759.19;;;13.87;23.32
7264;BME280;3673;52.480;13.348;2023-02-28T11:55:07;102759.91;;;14.31;23.27
7264;BME280;3673;52.480;13.348;2023-02-28T11:58:04;102755.69;;;14.39;23.09
7264;BME280;3673;52.480;13.348;2023-02-28T12:00:44;102760.66;;;14.77;22.85
7264;BME280;3673;52.480;13.348;2023-02-28T12:03:27;102756.50;;;14.95;22.24
7264;BME280;3673;52.480;13.348;2023-02-28T12:06:08;102754.59;;;15.52;22.42
7264;BME280;3673;52.480;13.348;2023-02-28T12:08:49;102754.63;;;15.55;22.28
7264;BME280;3673;52.480;13.348;2023-02-28T12:11:34;102753.38;;;16.07;21.85
7264;BME280;3673;52.480;13.348;2023-02-28T12:14:25;102752.63;;;15.35;22.50
7264;BME280;3673;52.480;13.348;2023-02-28T12:17:05;102747.69;;;15.63;22.21
7264;BME280;3673;52.480;13.348;2023-02-28T12:19:45;102748.59;;;15.66;22.34
7264;BME280;3673;52.480;13.348;2023-02-28T12:22:29;102745.94;;;15.65;22.22
7264;BME280;3673;52.480;13.348;2023-02-28T12:25:35;102747.66;;;15.60;22.13
7264;BME280;3673;52.480;13.348;2023-02-28T12:28:08;102752.91;;;15.58;22.88
7264;BME280;3673;52.480;13.348;2023-02-28T12:30:41;102733.31;;;15.39;22.41
7264;BME280;3673;52.480;13.348;2023-02-28T12:33:16;102733.09;;;14.55;23.08
7264;BME280;3673;52.480;13.348;2023-02-28T12:35:49;102729.53;;;14.52;23.46
7264;BME280;3673;52.480;13.348;2023-02-28T12:38:22;102716.06;;;14.93;23.29
7264;BME280;3673;52.480;13.348;2023-02-28T12:40:54;102722.25;;;15.68;22.66
7264;BME280;3673;52.480;13.348;2023-02-28T12:43:24;102710.13;;;15.92;21.94
7264;BME280;3673;52.480;13.348;2023-02-28T12:45:56;102700.38;;;15.81;22.31
7264;BME280;3673;52.480;13.348;2023-02-28T12:48:31;102706.59;;;15.89;22.67
7264;BME280;3673;52.480;13.348;2023-02-28T12:51:03;102701.38;;;15.96;22.42
7264;BME280;3673;52.480;13.348;2023-02-28T12:53:43;102687.31;;;15.99;21.80
7264;BME280;3673;52.480;13.348;2023-02-28T12:56:20;102691.28;;;15.50;22.62
7264;BME280;3673;52.480;13.348;2023-02-28T12:58:51;102680.44;;;16.22;21.97
7264;BME280;3673;52.480;13.348;2023-02-28T13:01:57;102679.38;;;15.99;21.96
7264;BME280;3673;52.480;13.348;2023-02-28T13:04:41;102671.38;;;15.88;23.95
7264;BME280;3673;52.480;13.348;2023-02-28T13:08:01;102669.38;;;16.87;27.03
7264;BME280;3673;52.480;13.348;2023-02-28T13:10:43;102667.84;;;17.93;24.10
7264;BME280;3673;52.480;13.348;2023-02-28T13:13:17;102663.44;;;17.71;26.74
7264;BME280;3673;52.480;13.348;2023-02-28T13:16:03;102666.06;;;18.01;23.85
7264;BME280;3673;52.480;13.348;2023-02-28T13:18:35;102666.69;;;18.99;25.77
7264;BME280;3673;52.480;13.348;2023-02-28T13:21:04;102660.38;;;19.24;25.34
7264;BME280;3673;52.480;13.348;2023-02-28T13:24:01;102665.63;;;19.41;21.57
7264;BME280;3673;52.480;13.348;2023-02-28T13:29:55;102667.91;;;19.88;23.52
7264;BME280;3673;52.480;13.348;2023-02-28T13:32:36;102663.28;;;17.06;20.47
7264;BME280;3673;52.480;13.348;2023-02-28T13:35:38;102659.03;;;17.73;24.25
7264;BME280;3673;52.480;13.348;2023-02-28T13:38:39;102661.50;;;18.72;23.33
7264;BME280;3673;52.480;13.348;2023-02-28T13:41:42;102659.78;;;18.45;22.18
7264;BME280;3673;52.480;13.348;2023-02-28T13:44:13;102653.53;;;18.84;22.04
7264;BME280;3673;52.480;13.348;2023-02-28T13:47:23;102643.50;;;19.40;21.21